sensor_id;sensor_type;location;lat;lon;timestamp;temperature;humidity
14517;DHT22;7344;50.864;4.362;2022-10-04T00:01:49;13.10;94.80
14517;DHT22;7344;50.864;4.362;2022-10-04T00:07:29;12.90;96.60
14517;DHT22;7344;50.864;4.362;2022-10-04T00:10:04;12.90;96.50
14517;DHT22;7344;50.864;4.362;2022-10-04T00:12:38;12.80;97.70
14517;DHT22;7344;50.864;4.362;2022-10-04T00:15:18;12.80;99.40
14517;DHT22;7344;50.864;4.362;2022-10-04T00:26:04;12.70;99.80
14517;DHT22;7344;50.864;4.362;2022-10-04T00:31:14;12.60;99.90
14517;DHT22;7344;50.864;4.362;2022-10-04T00:44:32;12.60;99.90
14517;DHT22;7344;50.864;4.362;2022-10-04T00:47:03;12.60;99.90
14517;DHT22;7344;50.864;4.362;2022-10-04T00:49:39;12.60;99.90
14517;DHT22;7344;50.864;4.362;2022-10-04T00:52:14;12.60;99.90
14517;DHT22;7344;50.864;4.362;2022-10-04T00:54:44;12.50;99.90
14517;DHT22;7344;50.864;4.362;2022-10-04T00:57:19;12.50;99.90
14517;DHT22;7344;50.864;4.362;2022-10-04T00:59:51;12.50;99.90
14517;DHT22;7344;50.864;4.362;2022-10-04T01:02:24;12.50;99.90
14517;DHT22;7344;50.864;4.362;2022-10-04T01:04:59;12.50;99.90
14517;DHT22;7344;50.864;4.362;2022-10-04T01:10:24;12.20;99.90
14517;DHT22;7344;50.864;4.362;2022-10-04T01:13:14;12.10;99.90
14517;DHT22;7344;50.864;4.362;2022-10-04T01:15:54;12.00;99.90
14517;DHT22;7344;50.864;4.362;2022-10-04T01:23:41;11.50;99.90
14517;DHT22;7344;50.864;4.362;2022-10-04T01:29:15;11.40;99.90
14517;DHT22;7344;50.864;4.362;2022-10-04T01:31:53;11.30;99.90
14517;DHT22;7344;50.864;4.362;2022-10-04T01:34:24;11.30;99.90
14517;DHT22;7344;50.864;4.362;2022-10-04T01:36:52;11.30;99.90
14517;DHT22;7344;50.864;4.362;2022-10-04T01:39:21;11.40;99.90
14517;DHT22;7344;50.864;4.362;2022-10-04T01:42:07;11.40;99.90
14517;DHT22;7344;50.864;4.362;2022-10-04T01:47:31;11.50;99.90
14517;DHT22;7344;50.864;4.362;2022-10-04T01:50:02;11.40;99.90
14517;DHT22;7344;50.864;4.362;2022-10-04T01:52:34;11.40;99.90
14517;DHT22;7344;50.864;4.362;2022-10-04T01:55:12;11.40;99.90
14517;DHT22;7344;50.864;4.362;2022-10-04T01:57:47;11.40;99.90
14517;DHT22;7344;50.864;4.362;2022-10-04T02:00:14;11.40;99.90
14517;DHT22;7344;50.864;4.362;2022-10-04T02:02:57;11.50;99.90
14517;DHT22;7344;50.864;4.362;2022-10-04T02:05:47;11.40;99.90
14517;DHT22;7344;50.864;4.362;2022-10-04T02:08:15;11.50;99.90
14517;DHT22;7344;50.864;4.362;2022-10-04T02:10:44;11.50;99.90
14517;DHT22;7344;50.864;4.362;2022-10-04T02:13:13;11.50;99.90
14517;DHT22;7344;50.864;4.362;2022-10-04T02:15:43;11.60;99.90
14517;DHT22;7344;50.864;4.362;2022-10-04T02:18:12;11.60;99.90
14517;DHT22;7344;50.864;4.362;2022-10-04T02:20:39;11.60;99.90
14517;DHT22;7344;50.864;4.362;2022-10-04T02:23:06;11.60;99.90
14517;DHT22;7344;50.864;4.362;2022-10-04T02:25:35;11.60;99.90
14517;DHT22;7344;50.864;4.362;2022-10-04T02:28:01;11.50;99.90
14517;DHT22;7344;50.864;4.362;2022-10-04T02:30:27;11.30;99.90
14517;DHT22;7344;50.864;4.362;2022-10-04T02:32:55;11.30;99.90
14517;DHT22;7344;50.864;4.362;2022-10-04T02:35:36;11.30;99.90
14517;DHT22;7344;50.864;4.362;2022-10-04T02:43:24;11.10;99.90
14517;DHT22;7344;50.864;4.362;2022-10-04T02:45:54;11.00;99.90
14517;DHT22;7344;50.864;4.362;2022-10-04T02:48:35;10.90;99.90
14517;DHT22;7344;50.864;4.362;2022-10-04T02:56:31;10.70;99.90
14517;DHT22;7344;50.864;4.362;2022-10-04T02:59:02;10.70;99.90
14517;DHT22;7344;50.864;4.362;2022-10-04T03:01:56;10.70;99.90
14517;DHT22;7344;50.864;4.362;2022-10-04T03:04:25;10.70;99.90
14517;DHT22;7344;50.864;4.362;2022-10-04T03:06:53;10.70;99.90
14517;DHT22;7344;50.864;4.362;2022-10-04T03:09:21;10.60;99.90
14517;DHT22;7344;50.864;4.362;2022-10-04T03:11:49;10.60;99.90
14517;DHT22;7344;50.864;4.362;2022-10-04T03:14:23;10.60;99.90
14517;DHT22;7344;50.864;4.362;2022-10-04T03:16:52;10.60;99.90
14517;DHT22;7344;50.864;4.362;2022-10-04T03:19:21;10.70;99.90
14517;DHT22;7344;50.864;4.362;2022-10-04T03:21:50;10.70;99.90
14517;DHT22;7344;50.864;4.362;2022-10-04T03:24:20;10.90;99.90
14517;DHT22;7344;50.864;4.362;2022-10-04T03:26:52;11.00;99.90
14517;DHT22;7344;50.864;4.362;2022-10-04T03:29:21;11.00;99.90
14517;DHT22;7344;50.864;4.362;2022-10-04T03:31:50;11.10;99.90
14517;DHT22;7344;50.864;4.362;2022-10-04T03:34:20;11.10;99.90
14517;DHT22;7344;50.864;4.362;2022-10-04T03:36:49;11.10;99.90
14517;DHT22;7344;50.864;4.362;2022-10-04T03:39:37;11.10;99.90
14517;DHT22;7344;50.864;4.362;2022-10-04T03:42:09;11.20;99.90
14517;DHT22;7344;50.864;4.362;2022-10-04T03:44:36;11.20;99.90
14517;DHT22;7344;50.864;4.362;2022-10-04T03:47:10;11.20;99.90
14517;DHT22;7344;50.864;4.362;2022-10-04T03:49:39;11.30;99.90
14517;DHT22;7344;50.864;4.362;2022-10-04T03:52:07;11.40;99.90
14517;DHT22;7344;50.864;4.362;2022-10-04T03:54:38;11.40;99.90
14517;DHT22;7344;50.864;4.362;2022-10-04T03:57:11;11.30;99.90
14517;DHT22;7344;50.864;4.362;2022-10-04T03:59:37;11.30;99.90
14517;DHT22;7344;50.864;4.362;2022-10-04T04:04:44;11.30;99.90
14517;DHT22;7344;50.864;4.362;2022-10-04T04:07:24;11.30;99.90
14517;DHT22;7344;50.864;4.362;2022-10-04T04:12:45;11.40;99.90
14517;DHT22;7344;50.864;4.362;2022-10-04T04:15:15;11.40;99.90
14517;DHT22;7344;50.864;4.362;2022-10-04T04:17:49;11.40;99.90
14517;DHT22;7344;50.864;4.362;2022-10-04T04:20:28;11.40;99.90
14517;DHT22;7344;50.864;4.362;2022-10-04T04:23:01;11.40;99.90
14517;DHT22;7344;50.864;4.362;2022-10-04T04:25:31;11.40;99.90
14517;DHT22;7344;50.864;4.362;2022-10-04T04:30:42;11.30;99.90
14517;DHT22;7344;50.864;4.362;2022-10-04T04:33:14;11.20;99.90
14517;DHT22;7344;50.864;4.362;2022-10-04T04:35:42;11.20;99.90
14517;DHT22;7344;50.864;4.362;2022-10-04T04:38:23;11.20;99.90
14517;DHT22;7344;50.864;4.362;2022-10-04T04:40:50;11.30;99.90
14517;DHT22;7344;50.864;4.362;2022-10-04T04:43:20;11.30;99.90
14517;DHT22;7344;50.864;4.362;2022-10-04T04:45:49;11.30;99.90
14517;DHT22;7344;50.864;4.362;2022-10-04T04:48:16;11.30;99.90
14517;DHT22;7344;50.864;4.362;2022-10-04T04:50:54;11.30;99.90
14517;DHT22;7344;50.864;4.362;2022-10-04T04:53:31;11.40;99.90
14517;DHT22;7344;50.864;4.362;2022-10-04T04:55:59;11.40;99.90
14517;DHT22;7344;50.864;4.362;2022-10-04T04:58:35;11.40;99.90
14517;DHT22;7344;50.864;4.362;2022-10-04T05:03:29;11.40;99.90
14517;DHT22;7344;50.864;4.362;2022-10-04T05:05:56;11.40;99.90
14517;DHT22;7344;50.864;4.362;2022-10-04T05:08:26;11.40;99.90
14517;DHT22;7344;50.864;4.362;2022-10-04T05:13:52;11.40;99.90
14517;DHT22;7344;50.864;4.362;2022-10-04T05:16:36;11.40;99.90
14517;DHT22;7344;50.864;4.362;2022-10-04T05:19:20;11.40;99.90
14517;DHT22;7344;50.864;4.362;2022-10-04T05:21:48;11.40;99.90
14517;DHT22;7344;50.864;4.362;2022-10-04T05:26:49;11.40;99.90
14517;DHT22;7344;50.864;4.362;2022-10-04T05:29:18;11.40;99.90
14517;DHT22;7344;50.864;4.362;2022-10-04T05:34:52;11.40;99.90
14517;DHT22;7344;50.864;4.362;2022-10-04T05:37:27;11.40;99.90
14517;DHT22;7344;50.864;4.362;2022-10-04T05:45:26;11.40;99.90
14517;DHT22;7344;50.864;4.362;2022-10-04T05:47:56;11.40;99.90
14517;DHT22;7344;50.864;4.362;2022-10-04T05:50:30;11.40;99.90
14517;DHT22;7344;50.864;4.362;2022-10-04T05:53:31;11.30;99.90
14517;DHT22;7344;50.864;4.362;2022-10-04T06:07:29;11.20;99.90
14517;DHT22;7344;50.864;4.362;2022-10-04T06:10:33;11.20;99.90
14517;DHT22;7344;50.864;4.362;2022-10-04T06:19:24;11.00;99.90
14517;DHT22;7344;50.864;4.362;2022-10-04T06:24:41;11.30;99.90
14517;DHT22;7344;50.864;4.362;2022-10-04T06:27:42;11.40;99.90
14517;DHT22;7344;50.864;4.362;2022-10-04T06:30:17;11.50;99.90
14517;DHT22;7344;50.864;4.362;2022-10-04T06:33:18;11.70;99.90
14517;DHT22;7344;50.864;4.362;2022-10-04T06:36:07;11.80;99.90
14517;DHT22;7344;50.864;4.362;2022-10-04T06:42:07;12.30;99.90
14517;DHT22;7344;50.864;4.362;2022-10-04T07:02:40;16.80;1.00
14517;DHT22;7344;50.864;4.362;2022-10-04T07:07:46;18.30;1.00
14517;DHT22;7344;50.864;4.362;2022-10-04T07:16:11;20.40;97.10
14517;DHT22;7344;50.864;4.362;2022-10-04T07:19:08;21.40;95.40
14517;DHT22;7344;50.864;4.362;2022-10-04T07:21:55;22.30;94.10
14517;DHT22;7344;50.864;4.362;2022-10-04T07:27:00;23.50;87.70
14517;DHT22;7344;50.864;4.362;2022-10-04T07:29:31;24.40;81.70
14517;DHT22;7344;50.864;4.362;2022-10-04T07:34:28;24.30;78.70
14517;DHT22;7344;50.864;4.362;2022-10-04T07:36:56;24.70;76.40
14517;DHT22;7344;50.864;4.362;2022-10-04T07:42:27;25.70;70.20
14517;DHT22;7344;50.864;4.362;2022-10-04T07:45:04;26.80;66.50
14517;DHT22;7344;50.864;4.362;2022-10-04T07:47:31;27.40;62.50
14517;DHT22;7344;50.864;4.362;2022-10-04T07:49:57;28.10;60.20
14517;DHT22;7344;50.864;4.362;2022-10-04T07:55:25;27.10;56.50
14517;DHT22;7344;50.864;4.362;2022-10-04T08:00:54;27.20;51.70
14517;DHT22;7344;50.864;4.362;2022-10-04T08:09:22;27.10;99.90
14517;DHT22;7344;50.864;4.362;2022-10-04T08:12:13;26.50;99.90
14517;DHT22;7344;50.864;4.362;2022-10-04T08:15:08;26.00;99.90
14517;DHT22;7344;50.864;4.362;2022-10-04T08:31:12;23.30;99.90
14517;DHT22;7344;50.864;4.362;2022-10-04T08:33:49;23.70;72.90
14517;DHT22;7344;50.864;4.362;2022-10-04T08:36:30;23.30;74.40
14517;DHT22;7344;50.864;4.362;2022-10-04T08:38:59;25.20;71.40
14517;DHT22;7344;50.864;4.362;2022-10-04T08:58:21;23.80;73.10
14517;DHT22;7344;50.864;4.362;2022-10-04T09:06:48;24.20;76.10
14517;DHT22;7344;50.864;4.362;2022-10-04T09:23:41;24.20;75.90
14517;DHT22;7344;50.864;4.362;2022-10-04T09:26:19;25.30;69.30
14517;DHT22;7344;50.864;4.362;2022-10-04T09:42:37;25.00;36.30
14517;DHT22;7344;50.864;4.362;2022-10-04T09:48:33;26.70;63.90
14517;DHT22;7344;50.864;4.362;2022-10-04T09:54:05;25.80;69.70
14517;DHT22;7344;50.864;4.362;2022-10-04T09:56:49;25.40;70.30
14517;DHT22;7344;50.864;4.362;2022-10-04T10:04:37;25.80;69.10
14517;DHT22;7344;50.864;4.362;2022-10-04T10:37:48;25.70;67.00
14517;DHT22;7344;50.864;4.362;2022-10-04T10:43:49;24.80;73.00
14517;DHT22;7344;50.864;4.362;2022-10-04T10:58:04;24.30;74.90
14517;DHT22;7344;50.864;4.362;2022-10-04T11:00:42;24.30;76.60
14517;DHT22;7344;50.864;4.362;2022-10-04T11:09:05;24.10;76.60
14517;DHT22;7344;50.864;4.362;2022-10-04T11:12:10;23.90;77.30
14517;DHT22;7344;50.864;4.362;2022-10-04T11:40:09;25.10;75.90
14517;DHT22;7344;50.864;4.362;2022-10-04T11:57:19;24.60;74.50
14517;DHT22;7344;50.864;4.362;2022-10-04T12:00:13;24.00;79.10
14517;DHT22;7344;50.864;4.362;2022-10-04T12:20:29;21.20;94.00
14517;DHT22;7344;50.864;4.362;2022-10-04T12:29:00;21.10;95.70
14517;DHT22;7344;50.864;4.362;2022-10-04T12:42:22;20.20;98.60
14517;DHT22;7344;50.864;4.362;2022-10-04T12:47:55;20.00;99.90
14517;DHT22;7344;50.864;4.362;2022-10-04T12:53:25;20.10;99.90
14517;DHT22;7344;50.864;4.362;2022-10-04T12:58:56;20.10;99.90
14517;DHT22;7344;50.864;4.362;2022-10-04T13:01:40;20.00;99.90
14517;DHT22;7344;50.864;4.362;2022-10-04T13:07:05;19.80;99.90
14517;DHT22;7344;50.864;4.362;2022-10-04T13:18:05;19.90;99.90
14517;DHT22;7344;50.864;4.362;2022-10-04T13:30:24;20.00;99.90
14517;DHT22;7344;50.864;4.362;2022-10-04T13:33:13;20.20;99.90
14517;DHT22;7344;50.864;4.362;2022-10-04T13:36:00;20.10;99.90
14517;DHT22;7344;50.864;4.362;2022-10-04T13:38:43;19.90;99.90
14517;DHT22;7344;50.864;4.362;2022-10-04T13:44:26;20.10;99.90
14517;DHT22;7344;50.864;4.362;2022-10-04T13:55:37;20.10;99.90
14517;DHT22;7344;50.864;4.362;2022-10-04T13:58:46;20.20;99.90
14517;DHT22;7344;50.864;4.362;2022-10-04T14:09:17;20.40;99.90
14517;DHT22;7344;50.864;4.362;2022-10-04T14:25:58;19.80;99.90
14517;DHT22;7344;50.864;4.362;2022-10-04T14:31:36;19.80;99.90
14517;DHT22;7344;50.864;4.362;2022-10-04T14:37:18;19.90;99.90
14517;DHT22;7344;50.864;4.362;2022-10-04T14:39:58;19.80;99.90
14517;DHT22;7344;50.864;4.362;2022-10-04T14:46:00;19.90;99.90
14517;DHT22;7344;50.864;4.362;2022-10-04T15:04:33;19.50;99.90
14517;DHT22;7344;50.864;4.362;2022-10-04T15:07:03;19.50;99.90
14517;DHT22;7344;50.864;4.362;2022-10-04T15:17:55;19.80;99.90
14517;DHT22;7344;50.864;4.362;2022-10-04T15:20:36;19.60;99.90
14517;DHT22;7344;50.864;4.362;2022-10-04T15:23:17;19.60;99.90
14517;DHT22;7344;50.864;4.362;2022-10-04T15:25:55;19.60;99.90
14517;DHT22;7344;50.864;4.362;2022-10-04T15:31:25;19.70;99.90
14517;DHT22;7344;50.864;4.362;2022-10-04T15:36:45;19.40;99.90
14517;DHT22;7344;50.864;4.362;2022-10-04T15:50:36;19.50;99.90
14517;DHT22;7344;50.864;4.362;2022-10-04T16:06:30;19.00;99.90
14517;DHT22;7344;50.864;4.362;2022-10-04T16:22:34;18.80;99.90
14517;DHT22;7344;50.864;4.362;2022-10-04T16:30:32;18.50;99.90
14517;DHT22;7344;50.864;4.362;2022-10-04T16:36:15;18.40;99.90
14517;DHT22;7344;50.864;4.362;2022-10-04T16:38:46;18.40;99.90
14517;DHT22;7344;50.864;4.362;2022-10-04T16:41:42;18.30;99.90
14517;DHT22;7344;50.864;4.362;2022-10-04T16:46:49;18.20;99.90
14517;DHT22;7344;50.864;4.362;2022-10-04T16:49:52;18.20;99.90
14517;DHT22;7344;50.864;4.362;2022-10-04T16:55:42;18.10;99.90
14517;DHT22;7344;50.864;4.362;2022-10-04T17:09:31;17.70;99.90
14517;DHT22;7344;50.864;4.362;2022-10-04T17:12:17;17.60;99.90
14517;DHT22;7344;50.864;4.362;2022-10-04T17:14:56;17.60;99.90
14517;DHT22;7344;50.864;4.362;2022-10-04T17:28:58;17.30;99.90
14517;DHT22;7344;50.864;4.362;2022-10-04T17:31:57;17.20;99.90
14517;DHT22;7344;50.864;4.362;2022-10-04T17:45:51;17.00;99.90
14517;DHT22;7344;50.864;4.362;2022-10-04T17:49:09;16.90;99.90
14517;DHT22;7344;50.864;4.362;2022-10-04T17:51:49;16.80;99.90
14517;DHT22;7344;50.864;4.362;2022-10-04T17:54:45;16.80;99.90
14517;DHT22;7344;50.864;4.362;2022-10-04T18:00:11;16.70;99.90
14517;DHT22;7344;50.864;4.362;2022-10-04T18:10:51;16.70;99.90
14517;DHT22;7344;50.864;4.362;2022-10-04T18:13:30;16.70;99.90
14517;DHT22;7344;50.864;4.362;2022-10-04T18:16:14;16.80;99.90
14517;DHT22;7344;50.864;4.362;2022-10-04T18:18:42;16.80;99.90
14517;DHT22;7344;50.864;4.362;2022-10-04T18:21:31;16.80;99.90
14517;DHT22;7344;50.864;4.362;2022-10-04T18:26:59;16.70;99.90
14517;DHT22;7344;50.864;4.362;2022-10-04T18:29:38;16.70;99.90
14517;DHT22;7344;50.864;4.362;2022-10-04T18:34:56;16.70;99.90
14517;DHT22;7344;50.864;4.362;2022-10-04T18:37:32;16.70;99.90
14517;DHT22;7344;50.864;4.362;2022-10-04T18:40:17;16.80;99.90
14517;DHT22;7344;50.864;4.362;2022-10-04T18:42:50;16.80;99.90
14517;DHT22;7344;50.864;4.362;2022-10-04T18:45:23;16.80;99.90
14517;DHT22;7344;50.864;4.362;2022-10-04T18:47:50;16.80;99.90
14517;DHT22;7344;50.864;4.362;2022-10-04T18:55:50;17.10;99.90
14517;DHT22;7344;50.864;4.362;2022-10-04T19:04:41;17.10;99.90
14517;DHT22;7344;50.864;4.362;2022-10-04T19:07:15;17.00;99.90
14517;DHT22;7344;50.864;4.362;2022-10-04T19:20:38;17.20;99.90
14517;DHT22;7344;50.864;4.362;2022-10-04T19:25:39;17.10;99.90
14517;DHT22;7344;50.864;4.362;2022-10-04T19:30:50;17.10;99.90
14517;DHT22;7344;50.864;4.362;2022-10-04T19:42:14;17.20;99.90
14517;DHT22;7344;50.864;4.362;2022-10-04T19:55:09;17.00;99.90
14517;DHT22;7344;50.864;4.362;2022-10-04T19:57:40;16.90;99.90
14517;DHT22;7344;50.864;4.362;2022-10-04T20:00:11;16.90;99.90
14517;DHT22;7344;50.864;4.362;2022-10-04T20:02:41;16.90;99.90
14517;DHT22;7344;50.864;4.362;2022-10-04T20:05:16;16.90;99.90
14517;DHT22;7344;50.864;4.362;2022-10-04T20:07:48;17.00;99.90
14517;DHT22;7344;50.864;4.362;2022-10-04T20:10:50;17.00;99.90
14517;DHT22;7344;50.864;4.362;2022-10-04T20:13:35;16.90;99.90
14517;DHT22;7344;50.864;4.362;2022-10-04T20:16:00;17.00;99.90
14517;DHT22;7344;50.864;4.362;2022-10-04T20:26:07;16.90;99.90
14517;DHT22;7344;50.864;4.362;2022-10-04T20:33:50;17.10;99.90
14517;DHT22;7344;50.864;4.362;2022-10-04T20:44:01;17.10;99.90
14517;DHT22;7344;50.864;4.362;2022-10-04T20:46:32;17.20;99.90
14517;DHT22;7344;50.864;4.362;2022-10-04T20:49:01;17.10;99.90
14517;DHT22;7344;50.864;4.362;2022-10-04T20:51:30;17.10;99.90
14517;DHT22;7344;50.864;4.362;2022-10-04T20:53:58;17.10;99.90
14517;DHT22;7344;50.864;4.362;2022-10-04T20:56:31;17.00;99.90
14517;DHT22;7344;50.864;4.362;2022-10-04T20:58:59;17.00;99.90
14517;DHT22;7344;50.864;4.362;2022-10-04T21:01:27;17.10;99.90
14517;DHT22;7344;50.864;4.362;2022-10-04T21:04:26;17.10;99.90
14517;DHT22;7344;50.864;4.362;2022-10-04T21:06:58;17.10;99.90
14517;DHT22;7344;50.864;4.362;2022-10-04T21:09:25;17.10;99.90
14517;DHT22;7344;50.864;4.362;2022-10-04T21:11:53;17.10;99.90
14517;DHT22;7344;50.864;4.362;2022-10-04T21:14:26;17.20;99.90
14517;DHT22;7344;50.864;4.362;2022-10-04T21:16:54;17.20;99.90
14517;DHT22;7344;50.864;4.362;2022-10-04T21:21:58;17.20;99.90
14517;DHT22;7344;50.864;4.362;2022-10-04T21:24:34;17.20;99.90
14517;DHT22;7344;50.864;4.362;2022-10-04T21:27:00;17.10;99.90
14517;DHT22;7344;50.864;4.362;2022-10-04T21:29:26;17.10;99.90
14517;DHT22;7344;50.864;4.362;2022-10-04T21:31:54;17.00;99.90
14517;DHT22;7344;50.864;4.362;2022-10-04T21:34:19;17.00;99.90
14517;DHT22;7344;50.864;4.362;2022-10-04T21:36:45;17.10;99.90
14517;DHT22;7344;50.864;4.362;2022-10-04T21:39:10;17.10;99.90
14517;DHT22;7344;50.864;4.362;2022-10-04T21:41:36;17.10;99.90
14517;DHT22;7344;50.864;4.362;2022-10-04T21:44:02;17.20;99.90
14517;DHT22;7344;50.864;4.362;2022-10-04T21:46:27;17.20;99.90
14517;DHT22;7344;50.864;4.362;2022-10-04T21:48:53;17.20;99.90
14517;DHT22;7344;50.864;4.362;2022-10-04T21:51:18;17.10;99.90
14517;DHT22;7344;50.864;4.362;2022-10-04T21:53:44;17.20;99.90
14517;DHT22;7344;50.864;4.362;2022-10-04T21:56:09;17.20;99.90
14517;DHT22;7344;50.864;4.362;2022-10-04T21:58:35;17.10;99.90
14517;DHT22;7344;50.864;4.362;2022-10-04T22:01:01;17.10;99.90
14517;DHT22;7344;50.864;4.362;2022-10-04T22:03:26;17.10;99.90
14517;DHT22;7344;50.864;4.362;2022-10-04T22:05:52;17.10;99.90
14517;DHT22;7344;50.864;4.362;2022-10-04T22:08:17;17.10;99.90
14517;DHT22;7344;50.864;4.362;2022-10-04T22:10:43;16.90;99.90
14517;DHT22;7344;50.864;4.362;2022-10-04T22:13:10;16.90;99.90
14517;DHT22;7344;50.864;4.362;2022-10-04T22:15:35;16.90;99.90
14517;DHT22;7344;50.864;4.362;2022-10-04T22:18:01;16.90;99.90
14517;DHT22;7344;50.864;4.362;2022-10-04T22:20:26;16.90;99.90
14517;DHT22;7344;50.864;4.362;2022-10-04T22:22:55;17.00;99.90
14517;DHT22;7344;50.864;4.362;2022-10-04T22:25:24;17.00;99.90
14517;DHT22;7344;50.864;4.362;2022-10-04T22:27:50;17.00;99.90
14517;DHT22;7344;50.864;4.362;2022-10-04T22:30:20;16.90;99.90
14517;DHT22;7344;50.864;4.362;2022-10-04T22:32:47;16.90;99.90
14517;DHT22;7344;50.864;4.362;2022-10-04T22:35:16;16.90;99.90
14517;DHT22;7344;50.864;4.362;2022-10-04T22:37:41;16.90;99.90
14517;DHT22;7344;50.864;4.362;2022-10-04T22:40:16;16.70;99.90
14517;DHT22;7344;50.864;4.362;2022-10-04T22:42:43;16.80;99.90
14517;DHT22;7344;50.864;4.362;2022-10-04T22:45:36;16.70;99.90
14517;DHT22;7344;50.864;4.362;2022-10-04T22:48:09;16.80;99.90
14517;DHT22;7344;50.864;4.362;2022-10-04T22:50:37;16.80;99.90
14517;DHT22;7344;50.864;4.362;2022-10-04T22:53:10;16.70;99.90
14517;DHT22;7344;50.864;4.362;2022-10-04T22:55:38;16.80;99.90
14517;DHT22;7344;50.864;4.362;2022-10-04T22:58:04;16.80;99.90
14517;DHT22;7344;50.864;4.362;2022-10-04T23:00:30;16.80;99.90
14517;DHT22;7344;50.864;4.362;2022-10-04T23:02:55;16.70;99.90
14517;DHT22;7344;50.864;4.362;2022-10-04T23:05:21;16.70;99.90
14517;DHT22;7344;50.864;4.362;2022-10-04T23:07:47;16.70;99.90
14517;DHT22;7344;50.864;4.362;2022-10-04T23:10:15;16.70;99.90
14517;DHT22;7344;50.864;4.362;2022-10-04T23:12:44;16.80;99.90
14517;DHT22;7344;50.864;4.362;2022-10-04T23:15:14;16.90;99.90
14517;DHT22;7344;50.864;4.362;2022-10-04T23:17:40;16.90;99.90
14517;DHT22;7344;50.864;4.362;2022-10-04T23:20:13;16.80;99.90
14517;DHT22;7344;50.864;4.362;2022-10-04T23:22:42;16.70;99.90
14517;DHT22;7344;50.864;4.362;2022-10-04T23:25:18;16.70;99.90
14517;DHT22;7344;50.864;4.362;2022-10-04T23:27:45;16.70;99.90
14517;DHT22;7344;50.864;4.362;2022-10-04T23:30:16;16.70;99.90
14517;DHT22;7344;50.864;4.362;2022-10-04T23:32:47;16.60;99.90
14517;DHT22;7344;50.864;4.362;2022-10-04T23:35:19;16.60;99.90
14517;DHT22;7344;50.864;4.362;2022-10-04T23:37:45;16.60;99.90
14517;DHT22;7344;50.864;4.362;2022-10-04T23:40:15;16.70;99.90
14517;DHT22;7344;50.864;4.362;2022-10-04T23:42:42;16.70;99.90
14517;DHT22;7344;50.864;4.362;2022-10-04T23:45:21;16.70;99.90
14517;DHT22;7344;50.864;4.362;2022-10-04T23:47:50;16.70;99.90
14517;DHT22;7344;50.864;4.362;2022-10-04T23:50:29;16.70;99.90
14517;DHT22;7344;50.864;4.362;2022-10-04T23:52:58;16.80;99.90
14517;DHT22;7344;50.864;4.362;2022-10-04T23:55:36;16.70;99.90
14517;DHT22;7344;50.864;4.362;2022-10-04T23:58:23;16.70;99.90
